• Join FlightAware (Why Join?)
  • Login
  • US Flag 
10:53PM EDT


 

Airport Tracker/Info


-or-


 

Live Flight TrackerFlight Track Log ✈ USC105 ✈ 12-Apr-2013 ✈ KYIP - KLCK

Flight Track Log - Related Links

Times and Time Zones

All times are in EDT time to prevent confusion due to time zone crossing. See the USC105 flight status page for this flight to view local times or setup timezone preferences in your user account.

Time Position Orientation Groundspeed Altitude Reporting Facility
EDT Latitude Longitude Course Direction KTS MPH feet Rate Location/Type
07:09AM 42.2431 -83.6153 273° West 130 150 3,200  Level Cleveland Center
07:10AM 42.2133 -83.6364 208° Southwest 136 157 4,200 840 Climbing Cleveland Center
07:11AM 42.1814 -83.6600 209° Southwest 135 155 5,000 420 Climbing Cleveland Center
07:12AM 42.1472 -83.6892 212° Southwest 171 197 5,000  Level Cleveland Center
07:13AM 42.1069 -83.7181 208° Southwest 165 190 5,000  Level Cleveland Center
07:14AM 42.0619 -83.7550 211° Southwest 164 189 5,000  Level Cleveland Center
07:15AM 42.0194 -83.7864 209° Southwest 177 204 5,000  Level Cleveland Center
07:16AM 41.9728 -83.8175 206° Southwest 179 206 5,000  Level Cleveland Center
07:17AM 41.9322 -83.8489 210° Southwest 181 208 5,000 180 Level Cleveland Center
07:19AM 41.8812 -83.8092 150° Southeast  Level FlightAware Approximate
07:22AM 41.6836 -83.7300 163° South 178 205 6,200  Level Indianapolis Center
07:23AM 41.6375 -83.7106 163° South 177 204 7,000 360 Climbing Indianapolis Center
07:24AM 41.5928 -83.6906 162° South 173 199 7,000  Level Indianapolis Center
07:25AM 41.5447 -83.6697 162° South 175 201 7,000  Level Indianapolis Center
07:26AM 41.5832 -83.6785 160° South  Level Estimated
07:26AM 41.4964 -83.6494 163° South 180 207 7,000  Level Indianapolis Center
07:27AM 41.5403 -83.6615 163° South  Level FlightAware Approximate
07:27AM 41.4497 -83.6286 161° South 177 204 7,000  Level Indianapolis Center
07:28AM 41.4973 -83.6445 163° South  Level FlightAware Approximate
07:28AM 41.4028 -83.6083 162° South 176 203 7,000  Level Indianapolis Center
07:29AM 41.3558 -83.5872 161° South 178 205 7,000  Level Indianapolis Center
07:31AM 41.3097 -83.5672 162° South 176 203 7,000  Level Indianapolis Center
07:32AM 41.2633 -83.5469 162° South 175 201 7,000  Level Indianapolis Center
07:33AM 41.2158 -83.5242 160° South 177 204 7,000  Level Indianapolis Center
07:34AM 41.1686 -83.5053 163° South 176 203 7,000  Level Indianapolis Center
07:35AM 41.1219 -83.4839 161° South 177 204 7,000  Level Indianapolis Center
07:36AM 41.0750 -83.4642 162° South 176 203 7,000  Level Indianapolis Center
07:37AM 41.0281 -83.4439 162° South 176 203 7,000  Level Indianapolis Center
07:38AM 40.9733 -83.4197 162° South 176 203 7,000  Level Indianapolis Center
07:39AM 40.9269 -83.4000 162° South 174 200 7,000  Level Indianapolis Center
07:40AM 40.8806 -83.3792 161° South 174 200 7,000  Level Indianapolis Center
07:41AM 40.8333 -83.3603 163° South 175 201 7,000  Level Indianapolis Center
07:42AM 40.7858 -83.3386 161° South 178 205 7,000  Level Indianapolis Center
07:43AM 40.7381 -83.3192 163° South 173 199 7,000  Level Indianapolis Center
07:44AM 40.6908 -83.2983 162° South 176 203 7,000  Level Indianapolis Center
07:45AM 40.6450 -83.2786 162° South 174 200 7,000  Level Indianapolis Center
07:46AM 40.5989 -83.2594 162° South 172 198 7,000  Level Indianapolis Center
07:47AM 40.5528 -83.2386 161° South 173 199 7,000  Level Indianapolis Center
07:48AM 40.5106 -83.2064 150° Southeast 182 209 7,100  Climbing Indianapolis Center
07:49AM 40.4778 -83.1511 128° Southeast 190 219 7,000 -60 Descending Indianapolis Center
07:50AM 40.4433 -83.0961 129° Southeast 192 221 7,000  Level Indianapolis Center
07:51AM 40.4097 -83.0411 129° Southeast 191 220 7,000  Level Indianapolis Center
07:52AM 40.3747 -82.9881 131° Southeast 191 220 7,000  Level Indianapolis Center
07:53AM 40.3397 -82.9356 131° Southeast 190 219 7,000  Level Indianapolis Center
07:54AM 40.2981 -82.8731 131° Southeast 182 209 7,000 -180 Level Indianapolis Center
07:55AM 40.2672 -82.8300 133° Southeast 177 204 6,700 -660 Descending Indianapolis Center
07:55AM 40.2511 -82.8239 164° South 176 203 6,200 -1,620 Descending Indianapolis Center
07:56AM 40.2175 -82.8108 163° South 184 212 5,100 -1,620 Descending Indianapolis Center
07:56AM 40.2019 -82.8075 171° South 193 222 4,600 -1,500 Descending Indianapolis Center
07:57AM 40.1647 -82.7981 169° South 189 217 3,600 -1,200 Descending Indianapolis Center
07:57AM 40.1483 -82.7958 174° South 195 224 3,400 -540 Descending Indianapolis Center
07:58AM 40.1133 -82.7869 169° South 188 216 3,100 -360 Descending Indianapolis Center
07:59AM 40.0967 -82.7847 174° South 169 194 3,000 -120 Descending Indianapolis Center
07:59AM 40.0681 -82.7756 166° South 178 205 3,000  Level Indianapolis Center
08:00AM 40.0475 -82.7683 165° South 148 170 3,000  Level Indianapolis Center
08:00AM 40.0281 -82.7597 161° South 162 186 3,000  Level Indianapolis Center
08:01AM 40.0047 -82.7525 167° South 153 176 3,000 60 Level Indianapolis Center
08:01AM 39.9858 -82.7461 165° South 156 180 3,100 -120 Climbing Indianapolis Center
08:02AM 39.9614 -82.7422 173° South 153 176 2,900 -300 Descending Indianapolis Center
08:02AM 39.9497 -82.7586 227° Southwest 160 184 2,800 -360 Descending Indianapolis Center
08:03AM 39.9167 -82.7892 215° Southwest 151 174 2,400 -240 Descending Indianapolis Center
08:04AM 39.8894 -82.8239 224° Southwest 143 165 2,400 -120 Level Indianapolis Center
08:05AM 39.8667 -82.8558 227° Southwest 132 152 2,200 -540 Descending Indianapolis Center
08:06AM 39.8469 -82.8861 230° Southwest 119 137 1,400 -600 Descending Indianapolis Center
08:07AM 39.8275 -82.9128 226° Southwest 113 130 1,000 -420 Descending Indianapolis Center